createdAt,value
2024-01-30T00:02:27.965Z,14.50
2024-01-30T00:05:30.169Z,13.20
2024-01-30T00:08:32.457Z,13.45
2024-01-30T00:11:34.751Z,13.70
2024-01-30T00:14:37.020Z,13.25
2024-01-30T00:17:39.322Z,12.57
2024-01-30T00:20:42.111Z,12.40
2024-01-30T00:23:44.419Z,13.38
2024-01-30T00:26:46.593Z,13.40
2024-01-30T00:29:49.064Z,12.68
2024-01-30T00:32:51.333Z,11.98
2024-01-30T00:35:53.596Z,13.10
2024-01-30T00:38:55.742Z,11.73
2024-01-30T00:41:58.012Z,12.38
2024-01-30T00:45:00.267Z,11.88
2024-01-30T00:48:02.566Z,10.80
2024-01-30T00:51:04.898Z,11.95
2024-01-30T00:54:07.680Z,11.77
2024-01-30T00:57:10.302Z,12.45
2024-01-30T01:00:13.727Z,10.60
2024-01-30T01:03:16.105Z,11.63
2024-01-30T01:06:18.486Z,13.27
2024-01-30T01:09:20.761Z,11.82
2024-01-30T01:12:22.949Z,12.45
2024-01-30T01:15:27.083Z,12.88
2024-01-30T01:18:30.035Z,11.15
2024-01-30T01:21:32.238Z,10.73
2024-01-30T01:24:35.232Z,13.27
2024-01-30T01:27:41.914Z,12.27
2024-01-30T01:30:44.488Z,10.55
2024-01-30T01:33:46.931Z,11.00
2024-01-30T01:36:49.367Z,10.73
2024-01-30T01:39:51.624Z,11.45
2024-01-30T01:42:55.022Z,10.30
2024-01-30T01:45:57.465Z,10.68
2024-01-30T01:48:59.863Z,12.38
2024-01-30T01:52:02.222Z,10.25
2024-01-30T01:55:04.730Z,11.30
2024-01-30T01:58:07.097Z,10.43
2024-01-30T02:01:09.452Z,11.38
2024-01-30T02:04:11.744Z,11.80
2024-01-30T02:07:14.380Z,10.02
2024-01-30T02:10:16.912Z,9.73
2024-01-30T02:13:19.365Z,11.13
2024-01-30T02:16:21.884Z,10.80
2024-01-30T02:19:24.123Z,10.95
2024-01-30T02:22:26.562Z,11.57
2024-01-30T02:25:36.905Z,10.80
2024-01-30T02:28:39.561Z,10.60
2024-01-30T02:31:42.301Z,11.70
2024-01-30T02:34:44.574Z,12.43
2024-01-30T02:37:46.868Z,10.80
2024-01-30T02:40:48.993Z,10.88
2024-01-30T02:43:51.240Z,9.40
2024-01-30T02:46:55.379Z,11.10
2024-01-30T02:49:57.803Z,9.73
2024-01-30T02:53:00.100Z,12.02
2024-01-30T02:56:03.771Z,10.02
2024-01-30T02:59:05.986Z,11.20
2024-01-30T03:02:08.235Z,10.80
2024-01-30T03:05:10.386Z,11.88
2024-01-30T03:08:12.630Z,10.93
2024-01-30T03:11:14.924Z,11.50
2024-01-30T03:14:17.575Z,9.95
2024-01-30T03:17:19.963Z,11.95
2024-01-30T03:20:22.216Z,11.30
2024-01-30T03:23:24.406Z,11.88
2024-01-30T03:26:26.574Z,10.73
2024-01-30T03:29:28.783Z,10.25
2024-01-30T03:32:30.973Z,11.32
2024-01-30T03:35:33.130Z,11.77
2024-01-30T03:38:35.700Z,11.70
2024-01-30T03:41:37.936Z,10.70
2024-01-30T03:44:40.110Z,8.57
2024-01-30T03:47:44.928Z,9.80
2024-01-30T03:50:47.126Z,10.15
2024-01-30T03:53:49.277Z,10.43
2024-01-30T03:56:51.557Z,8.60
2024-01-30T03:59:54.444Z,11.25
2024-01-30T04:02:56.899Z,9.70
2024-01-30T04:05:59.504Z,8.63
2024-01-30T04:09:01.782Z,9.50
2024-01-30T04:12:04.867Z,9.55
2024-01-30T04:15:07.204Z,8.73
2024-01-30T04:18:09.439Z,10.07
2024-01-30T04:21:11.679Z,8.90
2024-01-30T04:24:13.951Z,8.82
2024-01-30T04:27:16.157Z,9.15
2024-01-30T04:30:18.453Z,19.42
2024-01-30T04:33:20.591Z,17.70
2024-01-30T04:36:22.818Z,10.00
2024-01-30T04:39:24.961Z,9.10
2024-01-30T04:42:27.250Z,9.52
2024-01-30T04:45:29.445Z,8.32
2024-01-30T04:48:31.703Z,10.05
2024-01-30T04:51:34.117Z,10.05
2024-01-30T04:54:36.812Z,9.65
2024-01-30T04:57:39.277Z,10.10
2024-01-30T05:00:41.648Z,9.40
2024-01-30T05:03:44.397Z,10.13
2024-01-30T05:06:46.852Z,10.60
2024-01-30T05:09:49.075Z,10.25
2024-01-30T05:12:51.406Z,10.98
2024-01-30T05:15:53.637Z,9.95
2024-01-30T05:18:55.883Z,9.90
2024-01-30T05:21:58.074Z,9.75
2024-01-30T05:25:00.340Z,9.10
2024-01-30T05:28:02.552Z,10.32
2024-01-30T05:31:04.927Z,9.85
2024-01-30T05:34:08.000Z,10.50
2024-01-30T05:37:10.407Z,9.68
2024-01-30T05:40:12.776Z,10.30
2024-01-30T05:43:15.139Z,10.90
2024-01-30T05:46:17.463Z,10.48
2024-01-30T05:49:19.779Z,10.80
2024-01-30T05:52:22.174Z,36.75
2024-01-30T05:55:24.489Z,26.17
2024-01-30T05:58:26.686Z,13.60
2024-01-30T06:01:30.566Z,10.57
2024-01-30T06:04:33.051Z,10.18
2024-01-30T06:07:37.065Z,10.95
2024-01-30T06:10:40.262Z,10.18
2024-01-30T06:13:42.481Z,11.10
2024-01-30T06:16:44.633Z,9.57
2024-01-30T06:19:46.859Z,8.55
2024-01-30T06:22:49.037Z,10.38
2024-01-30T06:25:51.239Z,10.15
2024-01-30T06:28:53.489Z,10.82
2024-01-30T06:31:55.844Z,10.93
2024-01-30T06:34:58.160Z,10.60
2024-01-30T06:38:00.496Z,10.13
2024-01-30T06:41:02.744Z,10.85
2024-01-30T06:44:09.424Z,11.30
2024-01-30T06:47:12.035Z,10.95
2024-01-30T06:50:14.358Z,11.07
2024-01-30T06:53:16.610Z,28.88
2024-01-30T06:56:22.057Z,26.23
2024-01-30T06:59:24.897Z,14.73
2024-01-30T07:02:27.121Z,11.90
2024-01-30T07:05:29.266Z,12.27
2024-01-30T07:08:31.476Z,10.75
2024-01-30T07:11:33.748Z,11.57
2024-01-30T07:14:36.508Z,10.93
2024-01-30T07:17:38.909Z,11.25
2024-01-30T07:20:47.384Z,12.40
2024-01-30T07:23:49.759Z,11.57
2024-01-30T07:26:52.042Z,13.35
2024-01-30T07:29:54.915Z,12.32
2024-01-30T07:32:57.222Z,12.95
2024-01-30T07:35:59.403Z,14.35
2024-01-30T07:39:01.709Z,13.43
2024-01-30T07:42:07.224Z,43.63
2024-01-30T07:45:10.655Z,18.58
2024-01-30T07:48:12.945Z,13.93
2024-01-30T07:51:15.254Z,15.70
2024-01-30T07:54:17.538Z,14.93
2024-01-30T07:57:19.668Z,15.57
2024-01-30T08:00:22.731Z,13.88
2024-01-30T08:03:25.446Z,16.17
2024-01-30T08:06:27.722Z,14.57
2024-01-30T08:09:29.909Z,14.63
2024-01-30T08:12:32.102Z,12.48
2024-01-30T08:15:34.684Z,12.02
2024-01-30T08:18:37.316Z,12.15
2024-01-30T08:21:40.231Z,12.10
2024-01-30T08:24:42.617Z,11.93
2024-01-30T08:27:45.652Z,16.05
2024-01-30T08:33:51.392Z,10.18
2024-01-30T08:36:53.656Z,12.23
2024-01-30T08:39:56.129Z,12.20
2024-01-30T08:42:58.358Z,11.93
2024-01-30T08:46:01.992Z,11.32
2024-01-30T08:49:06.040Z,10.75
2024-01-30T08:52:08.432Z,12.93
2024-01-30T08:55:10.797Z,12.15
2024-01-30T08:58:13.241Z,13.05
2024-01-30T09:01:15.977Z,11.05
2024-01-30T09:04:18.219Z,10.60
2024-01-30T09:07:20.615Z,12.27
2024-01-30T09:10:23.232Z,14.23
2024-01-30T09:13:25.685Z,14.23
2024-01-30T09:16:28.060Z,14.32
2024-01-30T09:19:31.678Z,15.27
2024-01-30T09:22:34.211Z,15.73
2024-01-30T09:25:36.605Z,17.23
2024-01-30T09:28:38.809Z,15.77
2024-01-30T09:31:44.725Z,14.77
2024-01-30T09:34:47.196Z,16.70
2024-01-30T09:37:49.488Z,14.02
2024-01-30T09:40:56.007Z,15.25
2024-01-30T09:43:58.705Z,15.20
2024-01-30T09:47:04.677Z,15.35
2024-01-30T09:50:07.887Z,17.08
2024-01-30T09:53:10.448Z,16.83
2024-01-30T09:56:13.766Z,13.65
2024-01-30T09:59:16.451Z,13.30
2024-01-30T10:02:20.228Z,15.45
2024-01-30T10:05:27.958Z,13.50
2024-01-30T10:08:31.085Z,13.63
2024-01-30T10:11:33.435Z,12.75
2024-01-30T10:14:39.224Z,12.77
2024-01-30T10:17:41.828Z,12.25
2024-01-30T10:20:44.113Z,12.75
2024-01-30T10:23:46.316Z,14.80
2024-01-30T10:26:48.547Z,14.40
2024-01-30T10:29:50.733Z,12.40
2024-01-30T10:32:53.125Z,13.40
2024-01-30T10:36:03.405Z,12.52
2024-01-30T10:39:07.678Z,16.00
2024-01-30T10:42:14.688Z,13.43
2024-01-30T10:45:17.103Z,12.75
2024-01-30T10:48:23.381Z,12.70
2024-01-30T10:51:27.979Z,12.63
2024-01-30T10:54:30.182Z,12.77
2024-01-30T10:57:37.870Z,14.23
2024-01-30T11:00:40.444Z,11.88
2024-01-30T11:03:42.977Z,10.48
2024-01-30T11:06:45.615Z,13.15
2024-01-30T11:09:54.944Z,12.77
2024-01-30T11:12:57.279Z,10.45
2024-01-30T11:16:06.474Z,10.95
2024-01-30T11:19:12.224Z,11.50
2024-01-30T11:22:14.717Z,10.85
2024-01-30T11:25:18.456Z,10.30
2024-01-30T11:28:23.164Z,9.35
2024-01-30T11:31:25.521Z,9.80
2024-01-30T11:34:30.680Z,10.13
2024-01-30T11:37:33.070Z,10.55
2024-01-30T11:40:37.598Z,10.88
2024-01-30T11:43:40.067Z,9.65
2024-01-30T11:46:42.616Z,7.68
2024-01-30T11:49:45.233Z,9.73
2024-01-30T11:52:47.857Z,9.63
2024-01-30T11:55:53.862Z,8.95
2024-01-30T11:58:56.300Z,8.65
2024-01-30T12:01:58.568Z,7.93
2024-01-30T12:05:06.142Z,7.15
2024-01-30T12:08:08.545Z,7.60
2024-01-30T12:11:11.540Z,5.70
2024-01-30T12:14:14.299Z,7.10
2024-01-30T12:17:30.181Z,7.07
2024-01-30T12:23:34.552Z,6.18
2024-01-30T12:26:36.854Z,6.28
2024-01-30T12:29:43.249Z,6.43
2024-01-30T12:32:47.446Z,5.15
2024-01-30T12:35:58.377Z,6.43
2024-01-30T12:39:05.574Z,5.75
2024-01-30T12:42:08.589Z,5.25
2024-01-30T12:45:11.292Z,5.13
2024-01-30T12:48:13.845Z,4.55
2024-01-30T12:51:16.094Z,4.78
2024-01-30T12:54:18.769Z,4.28
2024-01-30T12:57:21.216Z,4.25
2024-01-30T13:00:23.745Z,5.10
2024-01-30T13:03:26.019Z,4.80
2024-01-30T13:06:28.278Z,4.32
2024-01-30T13:09:33.832Z,2.33
2024-01-30T13:12:36.623Z,3.28
2024-01-30T13:15:39.478Z,3.95
2024-01-30T13:18:42.451Z,4.35
2024-01-30T13:21:44.864Z,3.90
2024-01-30T13:24:47.061Z,4.95
2024-01-30T13:27:49.439Z,5.63
2024-01-30T13:30:51.693Z,4.90
2024-01-30T13:33:54.808Z,6.35
2024-01-30T13:36:57.727Z,5.88
2024-01-30T13:40:01.317Z,6.03
2024-01-30T13:43:04.840Z,4.70
2024-01-30T13:46:07.196Z,4.93
2024-01-30T13:49:09.494Z,5.60
2024-01-30T13:52:11.715Z,5.82
2024-01-30T13:55:14.402Z,5.63
2024-01-30T13:58:16.852Z,4.43
2024-01-30T14:01:19.393Z,6.20
2024-01-30T14:04:23.050Z,6.68
2024-01-30T14:07:25.528Z,4.35
2024-01-30T14:10:27.895Z,5.80
2024-01-30T14:13:30.357Z,4.18
2024-01-30T14:16:32.628Z,6.15
2024-01-30T14:19:36.473Z,6.43
2024-01-30T14:22:41.742Z,4.82
2024-01-30T14:25:44.044Z,5.50
2024-01-30T14:28:47.406Z,5.68
2024-01-30T14:34:52.195Z,5.78
2024-01-30T14:37:54.616Z,5.97
2024-01-30T14:40:56.814Z,4.93
2024-01-30T14:43:59.027Z,5.95
2024-01-30T14:47:01.768Z,5.38
2024-01-30T14:50:06.620Z,5.68
2024-01-30T14:53:09.672Z,6.80
2024-01-30T14:56:11.950Z,5.97
2024-01-30T14:59:14.475Z,6.13
2024-01-30T15:02:16.855Z,7.18
2024-01-30T15:05:19.180Z,14.45
2024-01-30T15:08:21.865Z,8.25
2024-01-30T15:11:24.179Z,7.03
2024-01-30T15:14:26.426Z,7.07
2024-01-30T15:17:28.669Z,6.60
2024-01-30T15:20:32.526Z,7.28
2024-01-30T15:23:34.774Z,6.63
2024-01-30T15:26:37.003Z,6.68
2024-01-30T15:29:39.392Z,6.50
2024-01-30T15:32:41.861Z,7.57
2024-01-30T15:35:44.146Z,6.95
2024-01-30T15:38:46.591Z,7.13
2024-01-30T15:41:49.422Z,7.30
2024-01-30T15:44:51.657Z,8.15
2024-01-30T15:47:53.845Z,7.70
2024-01-30T15:50:55.993Z,8.68
2024-01-30T15:53:58.237Z,8.32
2024-01-30T15:57:00.628Z,7.75
2024-01-30T16:00:02.968Z,29.15
2024-01-30T16:03:13.721Z,27.45
2024-01-30T16:06:18.173Z,9.88
2024-01-30T16:09:20.443Z,8.25
2024-01-30T16:12:22.609Z,9.50
2024-01-30T16:15:26.405Z,9.45
2024-01-30T16:18:32.063Z,10.02
2024-01-30T16:21:34.282Z,9.60
2024-01-30T16:24:36.510Z,9.73
2024-01-30T16:27:38.731Z,10.73
2024-01-30T16:30:40.846Z,9.95
2024-01-30T16:33:43.075Z,11.23
2024-01-30T16:36:45.316Z,10.38
2024-01-30T16:39:47.679Z,9.88
2024-01-30T16:42:49.904Z,11.75
2024-01-30T16:45:52.245Z,10.07
2024-01-30T16:48:54.520Z,45.45
2024-01-30T16:51:58.619Z,35.05
2024-01-30T16:55:02.148Z,13.82
2024-01-30T16:58:04.757Z,11.27
2024-01-30T17:01:07.052Z,11.38
2024-01-30T17:04:09.455Z,11.73
2024-01-30T17:07:11.891Z,11.68
2024-01-30T17:10:17.584Z,12.85
2024-01-30T17:13:19.834Z,13.38
2024-01-30T17:16:22.553Z,13.32
2024-01-30T17:19:24.995Z,11.95
2024-01-30T17:22:28.108Z,14.32
2024-01-30T17:25:30.608Z,15.02
2024-01-30T17:28:32.954Z,14.77
2024-01-30T17:31:35.237Z,16.27
2024-01-30T17:34:37.506Z,14.07
2024-01-30T17:37:40.325Z,16.83
2024-01-30T17:40:42.586Z,15.63
2024-01-30T17:43:45.120Z,15.20
2024-01-30T17:46:48.462Z,17.02
2024-01-30T17:49:50.769Z,16.65
2024-01-30T17:52:54.944Z,15.98
2024-01-30T17:56:01.673Z,16.10
2024-01-30T17:59:04.118Z,17.05
2024-01-30T18:02:06.596Z,16.60
2024-01-30T18:05:10.813Z,16.92
2024-01-30T18:08:13.154Z,16.73
2024-01-30T18:11:15.372Z,15.68
2024-01-30T18:14:17.586Z,16.00
2024-01-30T18:17:19.752Z,17.58
2024-01-30T18:20:22.003Z,14.25
2024-01-30T18:23:24.325Z,15.38
2024-01-30T18:26:27.280Z,19.08
2024-01-30T18:29:29.596Z,18.75
2024-01-30T18:32:31.847Z,18.10
2024-01-30T18:35:34.871Z,19.17
2024-01-30T18:38:37.089Z,18.70
2024-01-30T18:41:39.401Z,16.58
2024-01-30T18:44:41.660Z,16.67
2024-01-30T18:47:43.900Z,19.88
2024-01-30T18:50:46.271Z,18.85
2024-01-30T18:53:48.927Z,18.50
2024-01-30T18:56:51.184Z,19.40
2024-01-30T18:59:53.517Z,20.25
2024-01-30T19:02:56.712Z,19.55
2024-01-30T19:05:59.174Z,21.17
2024-01-30T19:09:01.482Z,18.63
2024-01-30T19:12:03.796Z,18.42
2024-01-30T19:15:10.490Z,18.38
2024-01-30T19:18:13.994Z,17.77
2024-01-30T19:21:16.313Z,19.33
2024-01-30T19:24:18.513Z,19.50
2024-01-30T19:27:21.121Z,19.27
2024-01-30T19:30:23.416Z,20.50
2024-01-30T19:33:25.631Z,18.15
2024-01-30T19:36:27.810Z,18.75
2024-01-30T19:39:29.948Z,18.10
2024-01-30T19:42:32.235Z,17.38
2024-01-30T19:45:35.105Z,18.55
2024-01-30T19:48:37.813Z,17.25
2024-01-30T19:51:40.003Z,18.70
2024-01-30T19:54:42.194Z,18.42
2024-01-30T19:57:44.458Z,18.40
2024-01-30T20:00:47.789Z,17.77
2024-01-30T20:03:50.129Z,18.45
2024-01-30T20:06:52.400Z,18.83
2024-01-30T20:09:54.752Z,17.42
2024-01-30T20:12:58.087Z,20.13
2024-01-30T20:16:00.494Z,18.23
2024-01-30T20:19:02.832Z,18.95
2024-01-30T20:22:05.232Z,20.35
2024-01-30T20:25:13.731Z,17.45
2024-01-30T20:28:20.833Z,17.70
2024-01-30T20:31:23.233Z,19.17
2024-01-30T20:34:25.708Z,18.23
2024-01-30T20:37:28.451Z,17.23
2024-01-30T20:40:30.733Z,18.83
2024-01-30T20:43:33.050Z,20.48
2024-01-30T20:46:35.386Z,18.77
2024-01-30T20:49:37.835Z,19.73
2024-01-30T20:52:40.186Z,19.42
2024-01-30T20:55:42.604Z,18.48
2024-01-30T20:58:44.818Z,18.15
2024-01-30T21:01:47.164Z,18.55
2024-01-30T21:04:49.612Z,17.60
2024-01-30T21:07:53.929Z,18.77
2024-01-30T21:10:56.307Z,17.02
2024-01-30T21:13:58.662Z,18.90
2024-01-30T21:20:04.877Z,15.65
